createdAt,value
2018-12-27T00:00:20.500Z,98371.76
2018-12-27T00:02:54.889Z,98371.01
2018-12-27T00:05:17.587Z,98374.10
2018-12-27T00:07:45.145Z,98368.53
2018-12-27T00:10:12.661Z,98364.56
2018-12-27T00:12:41.101Z,98365.31
2018-12-27T00:15:09.458Z,98364.38
2018-12-27T00:17:36.899Z,98358.30
2018-12-27T00:20:04.418Z,98348.39
2018-12-27T00:22:32.004Z,98354.13
2018-12-27T00:24:59.452Z,98352.09
2018-12-27T00:27:26.952Z,98354.27
2018-12-27T00:29:55.649Z,98349.97
2018-12-27T00:32:23.250Z,98349.07
2018-12-27T00:34:50.818Z,98354.72
2018-12-27T00:37:18.293Z,98345.25
2018-12-27T00:39:45.741Z,98345.16
2018-12-27T00:42:13.230Z,98339.57
2018-12-27T00:44:40.686Z,98342.34
2018-12-27T00:47:08.143Z,98342.45
2018-12-27T00:49:36.040Z,98342.42
2018-12-27T00:52:03.538Z,98338.08
2018-12-27T00:54:31.107Z,98337.52
2018-12-27T00:56:58.645Z,98345.28
2018-12-27T00:59:26.421Z,98341.84
2018-12-27T01:01:53.898Z,98347.39
2018-12-27T01:04:21.334Z,98347.02
2018-12-27T01:06:48.833Z,98337.23
2018-12-27T01:09:16.867Z,98349.08
2018-12-27T01:11:44.290Z,98339.27
2018-12-27T01:14:11.771Z,98335.82
2018-12-27T01:16:39.400Z,98348.77
2018-12-27T01:19:06.882Z,98349.53
2018-12-27T01:21:34.351Z,98349.50
2018-12-27T01:24:01.856Z,98350.86
2018-12-27T01:26:29.432Z,98349.13
2018-12-27T01:28:56.898Z,98346.52
2018-12-27T01:31:24.332Z,98345.64
2018-12-27T01:33:51.811Z,98348.14
2018-12-27T01:36:19.349Z,98345.38
2018-12-27T01:38:46.840Z,98342.75
2018-12-27T01:41:14.671Z,98344.06
2018-12-27T01:43:42.228Z,98343.25
2018-12-27T01:46:09.891Z,98350.08
2018-12-27T01:48:37.932Z,98343.12
2018-12-27T01:51:06.344Z,98342.25
2018-12-27T01:53:33.840Z,98347.13
2018-12-27T01:56:01.263Z,98345.34
2018-12-27T01:58:28.856Z,98347.81
2018-12-27T02:00:56.382Z,98351.81
2018-12-27T02:03:26.606Z,98346.34
2018-12-27T02:05:51.329Z,98353.72
2018-12-27T02:08:18.895Z,98355.35
2018-12-27T02:10:46.380Z,98351.83
2018-12-27T02:13:13.819Z,98341.93
2018-12-27T02:15:41.330Z,98336.17
2018-12-27T02:18:08.902Z,98337.02
2018-12-27T02:20:36.363Z,98337.82
2018-12-27T02:23:04.517Z,98330.48
2018-12-27T02:25:31.963Z,98327.33
2018-12-27T02:27:59.566Z,98327.98
2018-12-27T02:30:27.289Z,98327.91
2018-12-27T02:32:54.926Z,98315.80
2018-12-27T02:35:22.406Z,98320.02
2018-12-27T02:37:50.825Z,98323.52
2018-12-27T02:40:18.382Z,98316.29
2018-12-27T02:42:45.920Z,98321.41
2018-12-27T02:45:13.428Z,98317.05
2018-12-27T02:47:40.965Z,98314.48
2018-12-27T02:50:08.537Z,98311.62
2018-12-27T02:52:36.053Z,98313.43
2018-12-27T02:55:03.510Z,98310.14
2018-12-27T02:57:31.365Z,98299.37
2018-12-27T02:59:59.139Z,98305.41
2018-12-27T03:02:26.813Z,98304.51
2018-12-27T03:04:54.284Z,98299.84
2018-12-27T03:07:21.849Z,98291.20
2018-12-27T03:09:49.392Z,98292.11
2018-12-27T03:12:17.335Z,98294.63
2018-12-27T03:14:46.553Z,98295.90
2018-12-27T03:17:14.690Z,98299.80
2018-12-27T03:19:42.209Z,98288.66
2018-12-27T03:22:09.743Z,98295.58
2018-12-27T03:24:37.260Z,98295.20
2018-12-27T03:27:07.421Z,98283.97
2018-12-27T03:29:34.890Z,98286.13
2018-12-27T03:32:02.517Z,98283.17
2018-12-27T03:34:30.204Z,98284.11
2018-12-27T03:36:57.874Z,98278.59
2018-12-27T03:39:25.605Z,98276.48
2018-12-27T03:41:53.160Z,98270.81
2018-12-27T03:44:20.630Z,98280.95
2018-12-27T03:46:48.257Z,98269.20
2018-12-27T03:49:16.081Z,98270.44
2018-12-27T03:51:43.721Z,98266.11
2018-12-27T03:54:11.825Z,98262.27
2018-12-27T03:56:39.488Z,98261.80
2018-12-27T03:59:06.956Z,98270.17
2018-12-27T04:01:34.740Z,98265.56
2018-12-27T04:04:02.461Z,98265.51
2018-12-27T04:06:30.032Z,98264.09
2018-12-27T04:08:57.776Z,98263.65
2018-12-27T04:11:26.127Z,98267.64
2018-12-27T04:13:53.755Z,98263.25
2018-12-27T04:16:21.591Z,98263.28
2018-12-27T04:18:49.182Z,98266.36
2018-12-27T04:21:20.443Z,98268.42
2018-12-27T04:23:48.101Z,98271.36
2018-12-27T04:26:15.527Z,98271.97
2018-12-27T04:28:43.176Z,98269.42
2018-12-27T04:31:10.679Z,98264.98
2018-12-27T04:36:11.929Z,98262.44
2018-12-27T04:38:39.442Z,98270.37
2018-12-27T04:41:07.175Z,98268.31
2018-12-27T04:43:36.108Z,98263.23
2018-12-27T04:46:03.820Z,98272.20
2018-12-27T04:48:31.513Z,98279.13
2018-12-27T04:50:58.997Z,98268.77
2018-12-27T04:53:26.558Z,98270.47
2018-12-27T04:55:54.088Z,98275.19
2018-12-27T04:58:21.557Z,98272.45
2018-12-27T05:00:50.467Z,98270.28
2018-12-27T05:03:18.183Z,98274.73
2018-12-27T05:05:46.494Z,98267.00
2018-12-27T05:08:14.173Z,98271.28
2018-12-27T05:10:41.787Z,98272.98
2018-12-27T05:13:09.848Z,98272.48
2018-12-27T05:15:37.573Z,98265.96
2018-12-27T05:18:05.140Z,98272.45
2018-12-27T05:20:32.583Z,98273.70
2018-12-27T05:23:00.256Z,98264.60
2018-12-27T05:25:27.764Z,98272.78
2018-12-27T05:27:55.253Z,98272.86
2018-12-27T05:30:22.723Z,98271.98
2018-12-27T05:32:50.783Z,98273.16
2018-12-27T05:35:18.238Z,98270.52
2018-12-27T05:37:45.699Z,98282.51
2018-12-27T05:40:14.378Z,98274.71
2018-12-27T05:42:42.052Z,98274.48
2018-12-27T05:45:09.613Z,98271.12
2018-12-27T05:47:37.898Z,98279.50
2018-12-27T05:50:05.594Z,98275.16
2018-12-27T05:52:34.131Z,98274.38
2018-12-27T05:55:03.023Z,98280.71
2018-12-27T05:57:30.914Z,98283.72
2018-12-27T05:59:58.513Z,98276.77
2018-12-27T06:02:26.082Z,98281.91
2018-12-27T06:04:53.807Z,98279.41
2018-12-27T06:07:21.301Z,98285.48
2018-12-27T06:09:48.784Z,98280.30
2018-12-27T06:12:21.377Z,98281.84
2018-12-27T06:14:50.405Z,98284.42
2018-12-27T06:17:18.720Z,98282.55
2018-12-27T06:19:46.314Z,98279.88
2018-12-27T06:22:13.916Z,98281.62
2018-12-27T06:24:41.365Z,98282.98
2018-12-27T06:27:08.916Z,98279.42
2018-12-27T06:29:36.394Z,98281.09
2018-12-27T06:32:04.004Z,98280.15
2018-12-27T06:34:31.552Z,98287.13
2018-12-27T06:36:59.416Z,98281.12
2018-12-27T06:39:26.838Z,98278.54
2018-12-27T06:41:54.256Z,98283.39
2018-12-27T06:44:21.883Z,98286.86
2018-12-27T06:46:49.988Z,98281.66
2018-12-27T06:49:18.474Z,98296.70
2018-12-27T06:51:45.874Z,98282.45
2018-12-27T06:54:13.374Z,98284.31
2018-12-27T06:56:41.124Z,98291.64
2018-12-27T06:59:11.667Z,98293.72
2018-12-27T07:01:42.999Z,98298.92
2018-12-27T07:04:10.644Z,98293.23
2018-12-27T07:06:39.448Z,98302.30
2018-12-27T07:09:07.735Z,98299.84
2018-12-27T07:11:37.103Z,98301.04
2018-12-27T07:14:05.055Z,98304.52
2018-12-27T07:16:33.097Z,98300.22
2018-12-27T07:19:01.547Z,98309.77
2018-12-27T07:21:31.614Z,98302.84
2018-12-27T07:23:59.041Z,98301.58
2018-12-27T07:26:26.588Z,98304.66
2018-12-27T07:28:54.054Z,98306.66
2018-12-27T07:31:21.514Z,98305.23
2018-12-27T07:33:49.577Z,98307.03
2018-12-27T07:36:17.052Z,98303.45
2018-12-27T07:38:44.552Z,98305.14
2018-12-27T07:41:12.126Z,98306.95
2018-12-27T07:43:40.274Z,98299.63
2018-12-27T07:46:10.973Z,98306.44
2018-12-27T07:48:36.795Z,98309.40
2018-12-27T07:51:04.333Z,98305.97
2018-12-27T07:53:32.292Z,98310.83
2018-12-27T07:55:59.860Z,98314.23
2018-12-27T07:58:27.517Z,98312.94
2018-12-27T08:00:56.926Z,98315.98
2018-12-27T08:03:24.524Z,98313.37
2018-12-27T08:05:52.033Z,98313.30
2018-12-27T08:08:20.776Z,98305.54
2018-12-27T08:10:48.468Z,98313.25
2018-12-27T08:13:15.985Z,98312.26
2018-12-27T08:15:43.604Z,98315.27
2018-12-27T08:18:11.065Z,98312.25
2018-12-27T08:20:39.720Z,98317.37
2018-12-27T08:23:08.225Z,98318.80
2018-12-27T08:25:35.698Z,98322.66
2018-12-27T08:28:06.619Z,98320.01
2018-12-27T08:30:34.125Z,98320.04
2018-12-27T08:33:02.395Z,98318.75
2018-12-27T08:35:30.595Z,98317.00
2018-12-27T08:37:58.122Z,98316.48
2018-12-27T08:40:26.059Z,98316.08
2018-12-27T08:42:53.586Z,98318.75
2018-12-27T08:45:21.190Z,98321.59
2018-12-27T08:47:48.714Z,98317.23
2018-12-27T08:50:16.426Z,98311.16
2018-12-27T08:52:43.956Z,98318.49
2018-12-27T08:55:11.413Z,98316.75
2018-12-27T08:57:38.910Z,98314.61
2018-12-27T09:00:06.431Z,98315.11
2018-12-27T09:02:34.711Z,98315.03
2018-12-27T09:05:02.407Z,98317.02
2018-12-27T09:07:29.959Z,98314.00
2018-12-27T09:09:57.467Z,98311.73
2018-12-27T09:12:24.990Z,98315.16
2018-12-27T09:14:52.645Z,98304.78
2018-12-27T09:17:22.469Z,98312.64
2018-12-27T09:19:50.059Z,98311.27
2018-12-27T09:22:17.596Z,98310.75
2018-12-27T09:24:45.122Z,98313.67
2018-12-27T09:27:12.624Z,98312.88
2018-12-27T09:29:40.639Z,98307.13
2018-12-27T09:32:08.217Z,98312.28
2018-12-27T09:34:36.877Z,98313.53
2018-12-27T09:37:05.006Z,98316.98
2018-12-27T09:39:32.681Z,98310.14
2018-12-27T09:42:00.294Z,98316.24
2018-12-27T09:44:29.622Z,98311.45
2018-12-27T09:46:57.171Z,98313.20
2018-12-27T09:49:24.807Z,98304.03
2018-12-27T09:51:52.740Z,98305.16
2018-12-27T09:54:20.279Z,98301.19
2018-12-27T09:56:47.909Z,98302.61
2018-12-27T09:59:15.303Z,98302.06
2018-12-27T10:01:42.884Z,98288.02
2018-12-27T10:04:10.267Z,98289.20
2018-12-27T10:06:38.590Z,98291.16
2018-12-27T10:09:06.078Z,98297.02
2018-12-27T10:11:33.515Z,98285.35
2018-12-27T10:14:01.416Z,98279.34
2018-12-27T10:16:30.380Z,98284.02
2018-12-27T10:18:58.086Z,98280.66
2018-12-27T10:21:25.803Z,98283.63
2018-12-27T10:23:53.696Z,98279.55
2018-12-27T10:26:22.062Z,98282.45
2018-12-27T10:28:49.729Z,98275.98
2018-12-27T10:31:17.828Z,98275.86
2018-12-27T10:33:46.341Z,98276.63
2018-12-27T10:36:14.666Z,98269.63
2018-12-27T10:38:42.270Z,98266.31
2018-12-27T10:41:09.812Z,98260.68
2018-12-27T10:43:37.336Z,98264.41
2018-12-27T10:46:04.784Z,98259.55
2018-12-27T10:48:34.049Z,98249.77
2018-12-27T10:51:01.552Z,98254.34
2018-12-27T10:53:29.054Z,98244.62
2018-12-27T10:55:57.025Z,98241.30
2018-12-27T10:58:24.566Z,98238.92
2018-12-27T11:00:52.389Z,98235.88
2018-12-27T11:03:19.837Z,98233.86
2018-12-27T11:05:48.726Z,98229.23
2018-12-27T11:08:16.106Z,98231.30
2018-12-27T11:10:43.593Z,98222.46
2018-12-27T11:13:12.980Z,98225.85
2018-12-27T11:15:40.550Z,98222.57
2018-12-27T11:18:11.681Z,98214.73
2018-12-27T11:20:39.331Z,98214.98
2018-12-27T11:23:07.193Z,98207.47
2018-12-27T11:25:34.825Z,98200.55
2018-12-27T11:28:06.383Z,98195.20
2018-12-27T11:30:35.699Z,98190.50
2018-12-27T11:33:03.439Z,98188.81
2018-12-27T11:35:31.468Z,98185.14
2018-12-27T11:37:59.712Z,98182.16
2018-12-27T11:40:27.586Z,98183.11
2018-12-27T11:42:55.039Z,98175.75
2018-12-27T11:45:25.383Z,98176.08
2018-12-27T11:47:53.226Z,98166.79
2018-12-27T11:50:21.091Z,98156.11
2018-12-27T11:52:49.075Z,98157.69
2018-12-27T11:55:17.205Z,98159.59
2018-12-27T11:57:45.135Z,98157.19
2018-12-27T12:00:12.822Z,98149.62
2018-12-27T12:02:40.430Z,98152.47
2018-12-27T12:05:08.035Z,98151.91
2018-12-27T12:07:35.490Z,98148.25
2018-12-27T12:10:02.987Z,98145.66
2018-12-27T12:12:32.159Z,98148.27
2018-12-27T12:14:59.802Z,98143.08
2018-12-27T12:17:27.429Z,98139.73
2018-12-27T12:19:55.083Z,98144.22
2018-12-27T12:22:22.649Z,98141.86
2018-12-27T12:24:50.173Z,98138.88
2018-12-27T12:27:17.734Z,98140.86
2018-12-27T12:29:45.312Z,98130.00
2018-12-27T12:32:12.930Z,98131.20
2018-12-27T12:34:40.706Z,98125.22
2018-12-27T12:37:13.974Z,98129.23
2018-12-27T12:39:36.161Z,98123.17
2018-12-27T12:42:04.017Z,98119.17
2018-12-27T12:44:32.020Z,98115.80
2018-12-27T12:47:04.616Z,98116.29
2018-12-27T12:49:32.339Z,98120.15
2018-12-27T12:51:59.907Z,98113.45
2018-12-27T12:54:28.209Z,98123.05
2018-12-27T12:56:57.720Z,98122.95
2018-12-27T12:59:25.998Z,98128.68
2018-12-27T13:01:53.839Z,98124.27
2018-12-27T13:04:22.213Z,98123.06
2018-12-27T13:06:51.103Z,98121.85
2018-12-27T13:09:18.759Z,98124.81
2018-12-27T13:11:47.415Z,98119.98
2018-12-27T13:14:14.853Z,98119.67
2018-12-27T13:16:42.359Z,98118.03
2018-12-27T13:19:09.818Z,98111.26
2018-12-27T13:21:37.511Z,98110.87
2018-12-27T13:24:06.138Z,98113.39
2018-12-27T13:26:33.877Z,98116.27
2018-12-27T13:29:01.972Z,98116.28
2018-12-27T13:31:29.556Z,98115.83
2018-12-27T13:33:57.384Z,98112.67
2018-12-27T13:36:25.719Z,98111.43
2018-12-27T13:38:55.727Z,98110.33
2018-12-27T13:41:24.257Z,98104.49
2018-12-27T13:43:52.794Z,98105.39
2018-12-27T13:46:23.505Z,98107.86
2018-12-27T13:48:51.010Z,98108.41
2018-12-27T13:51:19.044Z,98108.18
2018-12-27T13:53:47.046Z,98107.61
2018-12-27T13:56:14.620Z,98105.58
2018-12-27T13:58:42.281Z,98110.94
2018-12-27T14:01:09.987Z,98103.89
2018-12-27T14:03:37.692Z,98109.00
2018-12-27T14:06:08.509Z,98106.69
2018-12-27T14:08:37.832Z,98107.93
2018-12-27T14:11:05.556Z,98101.55
2018-12-27T14:13:33.417Z,98110.27
2018-12-27T14:16:00.981Z,98104.94
2018-12-27T14:18:28.754Z,98102.64
2018-12-27T14:20:58.411Z,98102.51
2018-12-27T14:23:26.033Z,98103.75
2018-12-27T14:25:54.655Z,98097.23
2018-12-27T14:28:22.598Z,98104.66
2018-12-27T14:30:51.781Z,98099.59
2018-12-27T14:33:27.548Z,98096.85
2018-12-27T14:35:57.216Z,98092.66
2018-12-27T14:38:26.941Z,98092.56
2018-12-27T14:40:55.779Z,98094.05
2018-12-27T14:43:25.763Z,98093.49
2018-12-27T14:45:54.102Z,98089.60
2018-12-27T14:48:25.599Z,98093.52
2018-12-27T14:50:53.205Z,98091.53
2018-12-27T14:53:23.161Z,98099.65
2018-12-27T14:55:50.929Z,98103.91
2018-12-27T14:58:19.891Z,98094.10
2018-12-27T15:00:47.650Z,98093.73
2018-12-27T15:03:19.137Z,98098.39
2018-12-27T15:05:47.060Z,98094.17
2018-12-27T15:08:14.912Z,98100.77
2018-12-27T15:10:42.730Z,98100.89
2018-12-27T15:13:10.467Z,98095.72
2018-12-27T15:15:39.200Z,98095.45
2018-12-27T15:18:08.270Z,98092.98
2018-12-27T15:20:36.143Z,98097.23
2018-12-27T15:23:04.016Z,98110.20
2018-12-27T15:25:31.573Z,98109.44
2018-12-27T15:27:59.471Z,98105.33
2018-12-27T15:30:27.798Z,98101.48
2018-12-27T15:32:56.370Z,98100.88
2018-12-27T15:37:58.116Z,98093.06
2018-12-27T15:40:25.947Z,98096.77
2018-12-27T15:42:53.587Z,98093.72
2018-12-27T15:45:21.089Z,98086.16
2018-12-27T15:47:48.841Z,98098.49
2018-12-27T15:50:16.491Z,98099.77
2018-12-27T15:52:44.013Z,98098.41
2018-12-27T15:55:11.531Z,98105.59
2018-12-27T15:57:39.033Z,98115.00
2018-12-27T16:00:09.314Z,98104.59
2018-12-27T16:02:41.521Z,98102.13
2018-12-27T16:05:12.049Z,98102.64
2018-12-27T16:07:37.934Z,98109.63
2018-12-27T16:10:06.318Z,98115.94
2018-12-27T16:12:34.538Z,98109.88
2018-12-27T16:15:02.100Z,98108.61
2018-12-27T16:17:30.331Z,98114.73
2018-12-27T16:19:57.784Z,98110.52
2018-12-27T16:22:25.824Z,98114.55
2018-12-27T16:24:53.459Z,98107.22
2018-12-27T16:27:20.907Z,98119.02
2018-12-27T16:29:48.466Z,98112.56
2018-12-27T16:32:17.835Z,98118.08
2018-12-27T16:34:44.585Z,98114.09
2018-12-27T16:37:12.482Z,98115.62
2018-12-27T16:39:40.575Z,98121.78
2018-12-27T16:42:08.133Z,98129.30
2018-12-27T16:44:35.636Z,98120.34
2018-12-27T16:47:03.231Z,98129.70
2018-12-27T16:49:31.402Z,98122.44
2018-12-27T16:51:58.887Z,98128.94
2018-12-27T16:54:26.545Z,98134.98
2018-12-27T16:56:54.108Z,98134.00
2018-12-27T16:59:21.626Z,98138.16
2018-12-27T17:01:49.138Z,98128.92
2018-12-27T17:04:16.729Z,98131.70
2018-12-27T17:06:46.418Z,98136.78
2018-12-27T17:09:15.114Z,98134.18
2018-12-27T17:11:42.611Z,98133.11
2018-12-27T17:14:10.143Z,98133.89
2018-12-27T17:16:37.680Z,98143.24
2018-12-27T17:19:05.259Z,98143.00
2018-12-27T17:21:32.739Z,98140.80
2018-12-27T17:24:00.170Z,98134.00
2018-12-27T17:26:27.743Z,98143.26
2018-12-27T17:28:55.259Z,98141.61
2018-12-27T17:31:22.750Z,98141.42
2018-12-27T17:33:50.362Z,98146.06
2018-12-27T17:36:17.961Z,98143.81
2018-12-27T17:38:45.551Z,98146.88
2018-12-27T17:41:13.024Z,98150.66
2018-12-27T17:43:40.480Z,98159.98
2018-12-27T17:46:08.073Z,98155.25
2018-12-27T17:48:35.487Z,98161.75
2018-12-27T17:51:02.886Z,98163.04
2018-12-27T17:53:30.326Z,98160.84
2018-12-27T17:55:57.828Z,98172.03
2018-12-27T17:58:25.795Z,98161.70
2018-12-27T18:00:53.210Z,98159.67
2018-12-27T18:03:21.189Z,98164.19
2018-12-27T18:05:48.662Z,98170.75
2018-12-27T18:08:16.946Z,98170.38
2018-12-27T18:10:44.457Z,98164.25
2018-12-27T18:13:11.948Z,98168.08
2018-12-27T18:15:39.436Z,98170.09
2018-12-27T18:18:06.874Z,98157.56
2018-12-27T18:20:34.329Z,98156.94
2018-12-27T18:23:02.008Z,98157.41
2018-12-27T18:25:29.417Z,98158.00
2018-12-27T18:27:56.859Z,98166.26
2018-12-27T18:30:25.481Z,98155.87
2018-12-27T18:32:54.509Z,98156.41
2018-12-27T18:35:21.964Z,98159.06
2018-12-27T18:37:50.946Z,98163.35
2018-12-27T18:40:19.415Z,98163.53
2018-12-27T18:42:46.899Z,98165.59
2018-12-27T18:45:14.470Z,98155.47
2018-12-27T18:47:42.134Z,98165.03
2018-12-27T18:50:10.006Z,98168.52
2018-12-27T18:52:46.306Z,98168.88
2018-12-27T18:55:20.062Z,98172.23
2018-12-27T18:57:42.914Z,98166.90
2018-12-27T19:00:18.441Z,98170.92
2018-12-27T19:02:49.773Z,98169.84
2018-12-27T19:05:18.999Z,98165.36
2018-12-27T19:07:47.185Z,98171.14
2018-12-27T19:10:14.834Z,98162.13
2018-12-27T19:12:54.269Z,98161.52
2018-12-27T19:15:21.931Z,98164.41
2018-12-27T19:17:50.491Z,98165.19
2018-12-27T19:20:18.278Z,98164.73
2018-12-27T19:22:47.816Z,98170.27
2018-12-27T19:25:15.387Z,98168.27
2018-12-27T19:27:43.110Z,98161.46
2018-12-27T19:30:10.813Z,98162.61
2018-12-27T19:32:38.565Z,98163.47
2018-12-27T19:35:06.351Z,98164.86
2018-12-27T19:37:35.681Z,98157.91
2018-12-27T19:40:02.763Z,98160.42
2018-12-27T19:42:30.525Z,98163.73
2018-12-27T19:44:58.118Z,98165.44
2018-12-27T19:47:32.076Z,98165.84
2018-12-27T19:52:38.803Z,98158.30
2018-12-27T19:55:07.011Z,98161.14
2018-12-27T19:57:34.795Z,98165.13
2018-12-27T20:00:02.761Z,98162.98
2018-12-27T20:02:30.407Z,98159.16
2018-12-27T20:05:04.281Z,98155.17
2018-12-27T20:07:34.375Z,98157.59
2018-12-27T20:10:02.075Z,98155.78
2018-12-27T20:12:30.896Z,98157.60
2018-12-27T20:14:59.004Z,98155.48
2018-12-27T20:17:29.600Z,98155.69
2018-12-27T20:19:58.255Z,98151.92
2018-12-27T20:22:25.778Z,98154.95
2018-12-27T20:24:53.367Z,98157.91
2018-12-27T20:27:20.791Z,98154.20
2018-12-27T20:29:48.242Z,98156.36
2018-12-27T20:32:15.645Z,98150.75
2018-12-27T20:34:43.051Z,98155.84
2018-12-27T20:37:10.623Z,98155.27
2018-12-27T20:39:38.792Z,98159.20
2018-12-27T20:42:06.332Z,98148.84
2018-12-27T20:44:33.873Z,98153.94
2018-12-27T20:47:01.479Z,98152.11
2018-12-27T20:49:30.389Z,98151.03
2018-12-27T20:51:58.929Z,98153.23
2018-12-27T20:54:26.577Z,98158.08
2018-12-27T20:56:57.033Z,98149.87
2018-12-27T20:59:24.755Z,98154.97
2018-12-27T21:01:52.715Z,98156.28
2018-12-27T21:04:20.427Z,98152.39
2018-12-27T21:06:48.356Z,98154.19
2018-12-27T21:09:17.781Z,98157.16
2018-12-27T21:11:52.182Z,98160.18
2018-12-27T21:14:20.154Z,98157.14
2018-12-27T21:16:49.821Z,98155.41
2018-12-27T21:19:17.604Z,98158.37
2018-12-27T21:21:48.246Z,98164.58
2018-12-27T21:24:16.065Z,98156.34
2018-12-27T21:26:43.675Z,98159.85
2018-12-27T21:31:45.258Z,98164.38
2018-12-27T21:34:14.909Z,98168.33
2018-12-27T21:36:42.416Z,98168.00
2018-12-27T21:39:09.938Z,98163.16
2018-12-27T21:41:38.412Z,98169.15
2018-12-27T21:44:05.989Z,98169.47
2018-12-27T21:46:33.835Z,98168.22
2018-12-27T21:49:01.358Z,98166.13
2018-12-27T21:51:29.092Z,98167.16
2018-12-27T21:53:56.582Z,98164.27
2018-12-27T21:56:24.049Z,98167.81
2018-12-27T21:58:51.636Z,98164.86
2018-12-27T22:01:19.229Z,98164.04
2018-12-27T22:03:46.754Z,98166.49
2018-12-27T22:06:14.314Z,98162.47
2018-12-27T22:08:41.924Z,98161.21
2018-12-27T22:11:09.488Z,98166.89
2018-12-27T22:13:40.034Z,98164.68
2018-12-27T22:16:09.772Z,98165.28
2018-12-27T22:18:40.844Z,98163.58
2018-12-27T22:21:08.342Z,98167.09
2018-12-27T22:23:35.862Z,98167.86
2018-12-27T22:26:03.360Z,98166.02
2018-12-27T22:28:30.929Z,98166.40
2018-12-27T22:30:58.498Z,98166.95
2018-12-27T22:33:25.903Z,98163.17
2018-12-27T22:35:53.481Z,98178.75
2018-12-27T22:38:21.713Z,98169.45
2018-12-27T22:40:50.201Z,98167.95
2018-12-27T22:43:17.774Z,98161.16
2018-12-27T22:45:45.349Z,98161.23
2018-12-27T22:48:12.934Z,98163.70
2018-12-27T22:50:40.778Z,98162.43
2018-12-27T22:53:08.470Z,98161.61
2018-12-27T22:55:36.846Z,98165.77
2018-12-27T22:58:05.358Z,98153.23
2018-12-27T23:00:35.573Z,98161.34
2018-12-27T23:03:03.058Z,98159.05
2018-12-27T23:05:30.569Z,98155.63
2018-12-27T23:07:58.233Z,98157.38
2018-12-27T23:10:25.940Z,98160.88
2018-12-27T23:12:53.709Z,98156.56
2018-12-27T23:15:21.207Z,98154.00
2018-12-27T23:17:48.855Z,98151.53
2018-12-27T23:20:16.329Z,98158.77
2018-12-27T23:22:43.815Z,98151.83
2018-12-27T23:25:11.356Z,98149.27
2018-12-27T23:27:38.861Z,98153.52
2018-12-27T23:30:06.476Z,98144.91
2018-12-27T23:32:33.994Z,98152.66
2018-12-27T23:35:01.424Z,98152.86
2018-12-27T23:37:29.764Z,98146.30
2018-12-27T23:39:57.284Z,98147.02
2018-12-27T23:42:24.786Z,98144.28
2018-12-27T23:44:53.186Z,98146.05
2018-12-27T23:47:20.691Z,98147.28
2018-12-27T23:49:48.223Z,98147.81
2018-12-27T23:52:15.747Z,98141.64
2018-12-27T23:54:43.232Z,98144.50
2018-12-27T23:57:10.712Z,98145.20
2018-12-27T23:59:38.250Z,98145.94
